Augusta/Daniel Field, Georgia
Current Conditions -  °F | °C
As of 2:53 AM on Saturday 25 Oct 2014 (Local Time) from KDNL Reporting Station
Clear Clear  
Wind Chill: 56°   Ceiling: Unl
Heat Index: 56°   Visibility: 10mi
Dew Point: 46°   Wind: 0mph
Humidity: 69%   Direction: NA
Pressure: 30.01"   Gusts: NA
Location:  33.47°N, 82.03°W
Report Text: KDNL 250653Z AUTO 00000KT 10SM CLR 13/08 A3001 RMK AO2 SLP158 T01330078
Loading
Personal Weather Stations






























Interactive Weather Map
Tropical Storm Tracking
New forecast layout! Learn more

10-Day Weather Forecast

Advertisements
Track Severe Weather on mobile